Time;durP1;ratioP1;P1;durP2;ratioP2;P2;SDS_P1;SDS_P2;PMS_P1;PMS_P2;Temp;Humidity;BMP_temperature;BMP_pressure;BME280_temperature;BME280_humidity;BME280_pressure;Samples;Min_cycle;Max_cycle;Signal;HPM_P1;HPM_P2
2023/12/16 00:04:20;;;;;;;34.70;18.10;;;;;;;-0.34;100.00;100832.95;271167;1269;22714;-87
2023/12/16 00:10:23;;;;;;;40.60;18.10;;;;;;;-0.30;100.00;100837.02;272596;1270;22580;-87
2023/12/16 00:16:57;;;;;;;37.50;17.10;;;;;;;-0.26;100.00;100840.55;271717;1270;23185;-87
2023/12/16 00:23:22;;;;;;;39.00;17.80;;;;;;;-0.24;100.00;100834.70;271029;1272;24238;-87
2023/12/16 00:30:36;;;;;;;38.90;17.90;;;;;;;-0.21;100.00;100835.19;272146;1272;22527;-87
2023/12/16 00:36:41;;;;;;;32.70;16.90;;;;;;;-0.23;100.00;100854.77;272482;1269;22536;-88
2023/12/16 00:42:43;;;;;;;37.90;17.40;;;;;;;-0.22;100.00;100856.57;272187;1269;22557;-88
2023/12/16 00:48:46;;;;;;;31.30;15.50;;;;;;;-0.15;100.00;100838.30;271548;1273;22535;-88
2023/12/16 00:55:48;;;;;;;32.20;16.50;;;;;;;-0.09;100.00;100835.54;272197;1272;22276;-88
2023/12/16 01:02:25;;;;;;;30.20;15.40;;;;;;;-0.01;100.00;100841.35;270605;1270;27656;-88
2023/12/16 01:09:27;;;;;;;33.40;15.40;;;;;;;0.07;100.00;100847.52;271931;1275;22660;-88
2023/12/16 01:16:18;;;;;;;29.90;15.10;;;;;;;0.13;100.00;100841.80;271618;1272;22567;-87
2023/12/16 01:23:06;;;;;;;36.80;16.40;;;;;;;0.18;100.00;100840.46;273184;1270;22397;-89
2023/12/16 01:29:28;;;;;;;45.00;21.50;;;;;;;0.21;100.00;100833.70;273074;1275;23892;-88
2023/12/16 01:35:59;;;;;;;42.20;21.00;;;;;;;0.22;100.00;100837.85;271923;1275;22655;-88
2023/12/16 01:50:49;;;;;;;57.20;26.30;;;;;;;0.33;100.00;100839.47;273333;1275;22896;-89
2023/12/16 01:57:53;;;;;;;57.20;27.70;;;;;;;0.40;100.00;100842.56;271582;1270;24756;-89
2023/12/16 02:05:04;;;;;;;57.90;28.60;;;;;;;0.46;100.00;100845.44;271263;1270;22603;-90
2023/12/16 02:12:20;;;;;;;61.70;30.30;;;;;;;0.51;100.00;100846.31;272049;1275;22519;-90
2023/12/16 02:18:44;;;;;;;66.80;31.00;;;;;;;0.56;100.00;100852.21;271844;1269;23347;-90
2023/12/16 02:25:29;;;;;;;62.60;30.30;;;;;;;0.58;100.00;100858.69;270627;1270;23550;-88
2023/12/16 02:39:35;;;;;;;62.80;31.20;;;;;;;0.60;100.00;100875.45;271412;1279;23243;-89
2023/12/16 02:45:37;;;;;;;63.10;29.90;;;;;;;0.62;100.00;100879.84;271606;1279;22294;-90
2023/12/16 02:52:33;;;;;;;62.20;31.50;;;;;;;0.65;100.00;100880.75;271721;1280;22296;-89
2023/12/16 02:59:04;;;;;;;64.40;30.90;;;;;;;0.69;100.00;100881.58;271703;1284;22182;-91
2023/12/16 03:05:06;;;;;;;55.90;29.20;;;;;;;0.74;100.00;100878.23;271696;1283;23170;-89
2023/12/16 03:11:08;;;;;;;52.80;27.80;;;;;;;0.79;100.00;100874.17;270198;1281;22572;-91
2023/12/16 03:17:12;;;;;;;59.30;28.90;;;;;;;0.82;100.00;100878.20;270019;1280;24277;-90
2023/12/16 03:23:15;;;;;;;61.10;28.30;;;;;;;0.85;100.00;100881.73;269897;1280;22826;-91
2023/12/16 03:29:17;;;;;;;52.80;26.60;;;;;;;0.86;100.00;100895.65;262463;1280;10186081;-92
2023/12/16 03:35:21;;;;;;;49.80;26.00;;;;;;;0.89;100.00;100901.64;269561;1279;22653;-89
2023/12/16 03:41:23;;;;;;;51.40;26.40;;;;;;;0.94;100.00;100913.04;270276;1280;22434;-90
2023/12/16 03:47:26;;;;;;;49.60;23.10;;;;;;;0.98;100.00;100920.16;271721;1280;22335;-91
2023/12/16 03:53:28;;;;;;;41.90;22.70;;;;;;;1.02;100.00;100921.91;270194;1279;22580;-91
2023/12/16 03:59:51;;;;;;;41.00;21.70;;;;;;;1.08;100.00;100921.00;268380;1280;22379;-94
2023/12/16 04:06:01;;;;;;;37.00;18.60;;;;;;;1.11;100.00;100916.70;271009;1280;23461;-92
2023/12/16 04:12:03;;;;;;;28.70;15.80;;;;;;;1.16;100.00;100919.89;269901;1280;22312;-92
2023/12/16 04:18:21;;;;;;;26.70;15.30;;;;;;;1.23;100.00;100928.86;268408;1283;22241;-95
2023/12/16 04:24:57;;;;;;;;;;;;;;;;;;;;;
2023/12/16 04:31:23;;;;;;;22.70;12.20;;;;;;;1.37;100.00;100907.30;268777;1280;22315;-93
2023/12/16 04:38:41;;;;;;;32.80;17.90;;;;;;;1.42;100.00;100901.52;268969;1280;22595;-93
2023/12/16 04:44:55;;;;;;;32.50;19.10;;;;;;;1.48;100.00;100917.93;268497;1281;23095;-92
2023/12/16 04:51:08;;;;;;;32.50;17.60;;;;;;;1.52;100.00;100925.48;268769;1280;22200;-93
2023/12/16 04:57:10;;;;;;;28.40;15.00;;;;;;;1.57;100.00;100931.86;268631;1280;22557;-91
2023/12/16 05:03:34;;;;;;;31.80;16.00;;;;;;;1.61;100.00;100936.79;268970;1280;24289;-93
2023/12/16 05:09:37;;;;;;;29.00;16.10;;;;;;;1.67;100.00;100939.97;268465;1280;22592;-91
2023/12/16 05:15:41;;;;;;;33.10;16.20;;;;;;;1.72;100.00;100931.45;268933;1280;22934;-94
2023/12/16 05:21:53;;;;;;;31.40;15.30;;;;;;;1.73;100.00;100929.77;268788;1280;22601;-91
2023/12/16 05:27:57;;;;;;;26.20;14.50;;;;;;;1.75;100.00;100947.10;270088;1283;24305;-92
2023/12/16 05:34:11;;;;;;;;;;;;;;;;;;;;;
2023/12/16 05:40:14;;;;;;;34.00;16.70;;;;;;;1.79;100.00;100953.10;269660;1280;22553;-91
2023/12/16 05:46:16;;;;;;;20.60;13.10;;;;;;;1.82;100.00;100957.98;268896;1281;23979;-91
2023/12/16 05:52:19;;;;;;;20.90;12.40;;;;;;;1.87;100.00;100958.94;269170;1280;23106;-92
2023/12/16 05:58:24;;;;;;;23.50;13.90;;;;;;;1.90;100.00;100971.95;269538;1280;22569;-92
2023/12/16 06:04:27;;;;;;;26.70;15.00;;;;;;;1.91;100.00;100984.85;269173;1280;22556;-92
2023/12/16 06:10:32;;;;;;;30.60;16.20;;;;;;;1.92;100.00;101000.15;268798;1280;22701;-92
2023/12/16 06:16:43;;;;;;;26.40;14.10;;;;;;;1.94;100.00;101002.21;269583;1280;22434;-91
2023/12/16 06:23:11;;;;;;;27.80;15.60;;;;;;;1.96;100.00;101003.98;268997;1281;23655;-92
2023/12/16 06:29:19;;;;;;;;;;;;;;;1.98;100.00;101013.66;269671;1280;22533;-93
2023/12/16 06:35:21;;;;;;;32.90;18.60;;;;;;;2.00;100.00;101018.79;269441;1284;23810;-92
2023/12/16 06:41:24;;;;;;;33.20;18.40;;;;;;;2.04;100.00;101023.77;269197;1280;22571;-91
2023/12/16 06:47:26;;;;;;;33.30;17.60;;;;;;;2.06;100.00;101030.19;270386;1280;22226;-92
2023/12/16 06:53:35;;;;;;;37.60;18.00;;;;;;;2.09;100.00;101023.82;271289;1280;22214;-92
2023/12/16 06:59:58;;;;;;;35.30;19.20;;;;;;;2.11;100.00;101019.88;271075;1280;22356;-92
2023/12/16 07:06:28;;;;;;;43.70;19.20;;;;;;;2.14;100.00;101019.05;271270;1274;22957;-92
2023/12/16 07:12:30;;;;;;;38.70;18.00;;;;;;;2.18;100.00;101026.83;269919;1280;22226;-92
2023/12/16 07:18:32;;;;;;;36.80;19.50;;;;;;;2.22;100.00;101034.58;269070;1280;22221;-92
2023/12/16 07:24:37;;;;;;;30.40;17.70;;;;;;;2.27;100.00;101038.99;271092;1280;22612;-92
2023/12/16 07:30:43;;;;;;;37.40;18.50;;;;;;;2.32;100.00;101037.48;268913;1280;22555;-92
2023/12/16 07:36:45;;;;;;;33.00;18.10;;;;;;;2.36;100.00;101041.80;270427;1280;22617;-91
2023/12/16 07:42:49;;;;;;;26.80;16.20;;;;;;;2.38;100.00;101035.64;269995;1283;26211;-92
2023/12/16 07:48:51;;;;;;;35.40;18.00;;;;;;;2.40;100.00;101039.31;268908;1280;22241;-92
2023/12/16 07:54:54;;;;;;;31.00;16.10;;;;;;;2.43;100.00;101038.94;270195;1280;22228;-91
2023/12/16 08:00:56;;;;;;;26.60;14.10;;;;;;;2.49;100.00;101045.36;270454;1283;22519;-91
2023/12/16 08:06:58;;;;;;;26.20;13.00;;;;;;;2.55;100.00;101047.83;269720;1280;22392;-92
2023/12/16 08:13:01;;;;;;;28.30;14.40;;;;;;;2.61;100.00;101048.64;269507;1280;22793;-91
2023/12/16 08:19:03;;;;;;;29.00;15.00;;;;;;;2.68;100.00;101051.17;268904;1280;25312;-91
2023/12/16 08:25:06;;;;;;;24.60;13.90;;;;;;;2.74;100.00;101054.08;269566;1279;22643;-92
2023/12/16 08:31:08;;;;;;;27.00;14.80;;;;;;;2.80;100.00;101060.89;268316;1280;22658;-92
2023/12/16 08:37:11;;;;;;;28.80;16.10;;;;;;;2.85;100.00;101063.95;269708;1280;22408;-91
2023/12/16 08:43:16;;;;;;;26.40;13.80;;;;;;;2.91;100.00;101062.85;269403;1273;23423;-92
2023/12/16 08:49:18;;;;;;;30.20;16.80;;;;;;;2.99;100.00;101064.13;269626;1280;22628;-91
2023/12/16 08:55:23;;;;;;;26.50;15.50;;;;;;;3.07;100.00;101066.92;269150;1280;22290;-92
2023/12/16 09:01:27;;;;;;;30.60;14.90;;;;;;;3.17;100.00;101061.97;269941;1280;22784;-92
2023/12/16 09:07:33;;;;;;;34.50;16.50;;;;;;;3.25;100.00;101063.02;269548;1280;22332;-91
2023/12/16 09:13:37;;;;;;;34.90;17.10;;;;;;;3.32;100.00;101063.69;269936;1280;22543;-91
2023/12/16 09:19:43;;;;;;;39.00;22.90;;;;;;;3.37;100.00;101060.53;270700;1280;22680;-91
2023/12/16 09:25:57;;;;;;;42.90;23.60;;;;;;;3.34;100.00;101063.46;270367;1279;22563;-91
2023/12/16 09:32:02;;;;;;;45.90;22.40;;;;;;;3.34;100.00;101062.82;269490;1280;22786;-91
2023/12/16 09:38:10;;;;;;;42.30;20.00;;;;;;;3.41;100.00;101066.04;269597;1280;23095;-92
2023/12/16 09:44:19;;;;;;;32.30;18.00;;;;;;;3.51;100.00;101068.95;269670;1280;22623;-91
2023/12/16 09:50:29;;;;;;;34.90;18.20;;;;;;;3.61;100.00;101087.65;269190;1280;22569;-91
2023/12/16 09:56:35;;;;;;;30.80;16.40;;;;;;;3.69;100.00;101085.51;269486;1280;23229;-90
2023/12/16 10:02:51;;;;;;;28.60;14.90;;;;;;;3.76;100.00;101081.23;269923;1280;22602;-92
2023/12/16 10:09:01;;;;;;;28.00;15.90;;;;;;;3.81;100.00;101086.23;270244;1280;22595;-91
2023/12/16 10:15:09;;;;;;;31.40;17.50;;;;;;;3.85;100.00;101083.52;269479;1280;23898;-90
2023/12/16 10:21:27;;;;;;;31.90;17.40;;;;;;;3.89;100.00;101077.35;270433;1274;23095;-91
2023/12/16 10:27:35;;;;;;;35.60;16.50;;;;;;;3.93;100.00;101075.92;268941;1280;22713;-91
2023/12/16 10:33:40;;;;;;;31.00;15.70;;;;;;;3.98;100.00;101079.14;269532;1283;22569;-91
2023/12/16 10:39:43;;;;;;;35.90;16.90;;;;;;;4.04;100.00;101085.29;270073;1280;22833;-92
2023/12/16 10:45:48;;;;;;;42.20;18.20;;;;;;;4.06;100.00;101072.96;270199;1270;23814;-91
2023/12/16 10:52:06;;;;;;;27.50;14.00;;;;;;;4.09;100.00;101066.88;269087;1280;23333;-91
2023/12/16 10:58:26;;;;;;;29.80;14.20;;;;;;;4.17;100.00;101066.10;269135;1280;23398;-93
2023/12/16 11:04:43;;;;;;;23.70;11.90;;;;;;;4.23;100.00;101062.43;270479;1271;22563;-92
2023/12/16 11:10:56;;;;;;;18.40;10.80;;;;;;;4.29;100.00;101053.50;269580;1280;22620;-91
2023/12/16 11:17:21;;;;;;;23.20;11.30;;;;;;;4.36;100.00;101040.84;269309;1280;22578;-90
2023/12/16 11:23:24;;;;;;;26.90;13.20;;;;;;;4.43;100.00;101028.05;269355;1280;23120;-91
2023/12/16 11:29:41;;;;;;;25.20;12.30;;;;;;;4.47;100.00;101027.17;268789;1280;22995;-91
2023/12/16 11:35:52;;;;;;;26.70;12.70;;;;;;;4.50;100.00;101019.82;269470;1280;22550;-91
2023/12/16 11:42:17;;;;;;;22.10;10.20;;;;;;;4.56;100.00;101020.87;268862;1279;22240;-92
2023/12/16 11:48:26;;;;;;;31.60;13.00;;;;;;;4.58;100.00;101019.27;269172;1274;23598;-92
2023/12/16 11:54:33;;;;;;;28.30;13.40;;;;;;;4.62;100.00;101011.02;268496;1279;22593;-91
2023/12/16 12:00:41;;;;;;;26.40;11.30;;;;;;;4.63;100.00;101004.94;269206;1280;22585;-92
2023/12/16 12:06:57;;;;;;;;;;;;;;;;;;;;;
2023/12/16 12:13:21;;;;;;;23.80;12.30;;;;;;;4.78;100.00;100986.42;269376;1276;22251;-93
2023/12/16 12:19:23;;;;;;;24.80;12.80;;;;;;;4.86;100.00;100994.38;270177;1280;22577;-91
2023/12/16 12:25:26;;;;;;;21.40;12.10;;;;;;;4.90;100.00;100991.14;270770;1280;22439;-92
2023/12/16 12:31:43;;;;;;;28.80;14.10;;;;;;;4.89;100.00;100989.67;269369;1280;22373;-92
2023/12/16 12:37:46;;;;;;;25.20;12.90;;;;;;;4.85;100.00;100983.85;268468;1280;22561;-92
2023/12/16 12:43:48;;;;;;;27.10;12.10;;;;;;;4.86;100.00;100974.19;270085;1280;22618;-90
2023/12/16 12:50:02;;;;;;;22.60;12.30;;;;;;;4.88;100.00;100964.23;270909;1280;23349;-93
2023/12/16 12:56:32;;;;;;;19.00;10.20;;;;;;;4.90;100.00;100956.46;270094;1280;22575;-92
2023/12/16 13:02:35;;;;;;;19.50;11.20;;;;;;;4.89;100.00;100959.23;269186;1280;23804;-91
2023/12/16 13:08:40;;;;;;;20.30;10.80;;;;;;;4.82;100.00;100962.40;270007;1280;23412;-91
2023/12/16 13:15:01;;;;;;;25.00;12.90;;;;;;;4.76;100.00;100955.96;270048;1279;22567;-92
2023/12/16 13:21:19;;;;;;;25.00;12.80;;;;;;;4.74;100.00;100959.25;270431;1280;22585;-92
2023/12/16 13:27:34;;;;;;;27.70;14.10;;;;;;;4.72;100.00;100960.02;269251;1280;22551;-93
2023/12/16 13:33:56;;;;;;;25.40;13.90;;;;;;;4.70;100.00;100956.09;269638;1280;24808;-93
2023/12/16 13:40:15;;;;;;;35.30;15.80;;;;;;;4.67;100.00;100945.01;268988;1279;22253;-93
2023/12/16 13:46:25;;;;;;;29.60;15.30;;;;;;;4.62;100.00;100949.67;269863;1280;22229;-92
2023/12/16 13:52:37;;;;;;;32.90;17.20;;;;;;;4.58;100.00;100952.42;269857;1280;22890;-93
2023/12/16 13:58:40;;;;;;;35.40;17.70;;;;;;;4.55;100.00;100950.08;269818;1280;22304;-92
2023/12/16 14:04:44;;;;;;;25.30;13.30;;;;;;;4.53;100.00;100956.61;269931;1280;23664;-91
2023/12/16 14:10:47;;;;;;;28.20;14.60;;;;;;;4.50;100.00;100950.45;268985;1280;22696;-92
2023/12/16 14:16:49;;;;;;;24.40;12.80;;;;;;;4.48;100.00;100946.19;269423;1280;22595;-92
2023/12/16 14:22:52;;;;;;;26.90;13.80;;;;;;;4.45;100.00;100947.91;269697;1280;22584;-92
2023/12/16 14:28:56;;;;;;;29.50;15.90;;;;;;;4.41;100.00;100954.83;269776;1280;24567;-92
2023/12/16 14:35:04;;;;;;;23.40;13.70;;;;;;;4.37;100.00;100951.41;270957;1280;22290;-91
2023/12/16 14:41:12;;;;;;;26.70;14.60;;;;;;;4.33;100.00;100942.62;269782;1279;22225;-92
2023/12/16 14:47:14;;;;;;;21.90;12.50;;;;;;;4.28;100.00;100940.54;271718;1276;22311;-92
2023/12/16 14:53:16;;;;;;;28.20;14.80;;;;;;;4.24;100.00;100946.11;270548;1280;22465;-92
2023/12/16 14:59:18;;;;;;;26.40;14.70;;;;;;;4.18;100.00;100945.09;270222;1281;22218;-92
2023/12/16 15:05:21;;;;;;;33.00;18.10;;;;;;;4.09;100.00;100947.35;270718;1279;22228;-92
2023/12/16 15:11:23;;;;;;;33.50;17.60;;;;;;;3.99;100.00;100948.19;271634;1273;24284;-91
2023/12/16 15:17:26;;;;;;;30.60;18.60;;;;;;;3.90;100.00;100942.73;269189;1280;23261;-91
2023/12/16 15:23:29;;;;;;;30.70;18.90;;;;;;;3.85;100.00;100936.34;271131;1270;22230;-91
2023/12/16 15:29:35;;;;;;;30.80;16.50;;;;;;;3.80;100.00;100942.13;271247;1280;136766;-92
2023/12/16 15:35:37;;;;;;;29.10;16.70;;;;;;;3.79;100.00;100946.20;271654;1280;23042;-91
2023/12/16 15:41:39;;;;;;;34.40;19.40;;;;;;;3.78;100.00;100947.61;271644;1283;22204;-90
2023/12/16 15:47:41;;;;;;;34.60;18.60;;;;;;;3.75;100.00;100944.65;269989;1279;25339;-92
2023/12/16 15:53:43;;;;;;;43.00;23.20;;;;;;;3.73;100.00;100946.84;270303;1280;23636;-91
2023/12/16 15:59:45;;;;;;;39.70;22.10;;;;;;;3.72;100.00;100935.91;271569;1280;22216;-92
2023/12/16 16:05:48;;;;;;;42.60;22.90;;;;;;;3.69;100.00;100931.05;269626;1280;22666;-91
2023/12/16 16:11:50;;;;;;;37.00;20.10;;;;;;;3.68;100.00;100933.55;271654;1280;23535;-91
2023/12/16 16:17:52;;;;;;;42.40;21.10;;;;;;;3.68;100.00;100928.02;270966;1276;24296;-92
2023/12/16 16:23:54;;;;;;;40.50;20.20;;;;;;;3.69;100.00;100934.02;270504;1279;22610;-91
2023/12/16 16:29:56;;;;;;;35.50;20.10;;;;;;;3.74;100.00;100940.13;271639;1281;22635;-92
2023/12/16 16:35:58;;;;;;;36.40;20.30;;;;;;;3.76;100.00;100939.13;271590;1280;23006;-92
2023/12/16 16:42:03;;;;;;;40.20;21.30;;;;;;;3.76;100.00;100936.75;270286;1280;23666;-92
2023/12/16 16:48:07;;;;;;;38.90;20.30;;;;;;;3.76;100.00;100927.70;270803;1279;22213;-90
2023/12/16 16:54:13;;;;;;;38.80;21.00;;;;;;;3.72;100.00;100927.62;271587;1279;23333;-92
2023/12/16 17:00:22;;;;;;;55.60;28.80;;;;;;;3.64;100.00;100924.70;268933;1280;22600;-92
2023/12/16 17:06:25;;;;;;;55.20;27.10;;;;;;;3.60;100.00;100931.13;271600;1279;22221;-91
2023/12/16 17:12:27;;;;;;;49.30;25.20;;;;;;;3.60;100.00;100935.30;270593;1284;22582;-92
2023/12/16 17:18:29;;;;;;;44.00;24.00;;;;;;;3.60;100.00;100941.73;269407;1283;22554;-93
2023/12/16 17:24:31;;;;;;;43.80;23.60;;;;;;;3.61;100.00;100936.96;269574;1280;22521;-92
2023/12/16 17:30:34;;;;;;;47.00;22.30;;;;;;;3.60;100.00;100932.76;269430;1280;25270;-93
2023/12/16 17:36:36;;;;;;;41.20;22.10;;;;;;;3.61;100.00;100928.09;263832;1280;10002152;-91
2023/12/16 17:42:40;;;;;;;37.40;20.20;;;;;;;3.64;100.00;100929.78;271457;1276;22304;-92
2023/12/16 17:48:42;;;;;;;41.30;21.10;;;;;;;3.68;100.00;100935.07;271429;1279;22308;-88
2023/12/16 17:54:46;;;;;;;39.50;20.90;;;;;;;3.69;100.00;100936.42;271425;1280;23617;-91
2023/12/16 18:00:51;;;;;;;35.40;19.70;;;;;;;3.69;100.00;100946.39;270159;1281;22382;-91
2023/12/16 18:06:54;;;;;;;36.40;20.00;;;;;;;3.70;100.00;100937.81;270352;1283;23801;-91
2023/12/16 18:12:56;;;;;;;38.70;18.70;;;;;;;3.71;100.00;100934.23;268828;1273;22298;-90
2023/12/16 18:18:58;;;;;;;35.70;19.70;;;;;;;3.71;100.00;100940.58;268656;1280;22265;-91
2023/12/16 18:25:01;;;;;;;35.00;18.40;;;;;;;3.67;100.00;100947.53;269550;1280;22579;-91
2023/12/16 18:31:04;;;;;;;34.20;18.60;;;;;;;3.65;100.00;100948.15;269484;1280;22342;-90
2023/12/16 18:37:09;;;;;;;31.50;17.60;;;;;;;3.63;100.00;100947.62;270183;1279;22325;-91
2023/12/16 18:43:16;;;;;;;38.10;18.80;;;;;;;3.61;100.00;100947.30;270554;1280;23293;-90
2023/12/16 18:49:20;;;;;;;37.90;18.10;;;;;;;3.62;100.00;100952.39;270611;1280;22635;-89
2023/12/16 18:55:23;;;;;;;32.70;16.40;;;;;;;3.59;100.00;100960.38;269824;1280;22208;-90
2023/12/16 19:01:33;;;;;;;36.20;20.40;;;;;;;3.58;100.00;100951.06;271574;1280;23363;-91
2023/12/16 19:07:38;;;;;;;35.60;20.60;;;;;;;3.60;100.00;100952.58;271489;1279;22555;-91
2023/12/16 19:13:51;;;;;;;;;;;;;;;;;;;;;
2023/12/16 19:19:55;;;;;;;39.10;21.20;;;;;;;3.57;100.00;100947.82;270810;1283;23082;-91
2023/12/16 19:26:06;;;;;;;41.40;21.20;;;;;;;3.58;100.00;100954.30;270910;1281;22375;-91
2023/12/16 19:32:08;;;;;;;33.80;18.40;;;;;;;3.61;100.00;100950.41;271316;1280;22879;-91
2023/12/16 19:38:11;;;;;;;37.30;19.90;;;;;;;3.58;100.00;100948.58;271649;1283;22680;-92
2023/12/16 19:44:16;;;;;;;46.70;23.40;;;;;;;3.53;100.00;100945.53;271650;1274;22308;-91
2023/12/16 19:50:25;;;;;;;61.40;26.70;;;;;;;3.55;100.00;100943.94;271854;1286;23458;-91
2023/12/16 19:56:30;;;;;;;45.40;21.70;;;;;;;3.61;100.00;100940.33;271093;1280;22553;-93
2023/12/16 20:02:32;;;;;;;45.10;22.60;;;;;;;3.64;100.00;100939.11;269286;1283;22573;-91
2023/12/16 20:08:37;;;;;;;43.70;21.80;;;;;;;3.67;100.00;100948.57;268845;1284;22962;-92
2023/12/16 20:14:40;;;;;;;41.10;21.50;;;;;;;3.66;100.00;100947.77;269924;1277;23238;-91
2023/12/16 20:20:42;;;;;;;43.10;22.20;;;;;;;3.64;100.00;100946.90;270417;1280;22259;-92
2023/12/16 20:26:47;;;;;;;43.60;22.60;;;;;;;3.64;100.00;100947.95;271568;1273;23264;-92
2023/12/16 20:32:49;;;;;;;42.60;22.10;;;;;;;3.61;100.00;100935.39;270974;1280;22695;-93
2023/12/16 20:45:20;;;;;;;40.90;22.90;;;;;;;3.56;100.00;100906.17;271337;1285;22231;-92
2023/12/16 20:51:31;;;;;;;31.10;17.80;;;;;;;3.55;100.00;100904.73;268943;1282;22715;-92
2023/12/16 20:57:36;;;;;;;37.50;19.80;;;;;;;3.53;100.00;100900.36;269553;1271;22215;-93
2023/12/16 21:03:42;;;;;;;34.70;18.50;;;;;;;3.44;100.00;100898.36;271635;1278;22201;-92
2023/12/16 21:09:47;;;;;;;34.30;18.30;;;;;;;3.33;100.00;100889.14;270992;1282;22675;-92
2023/12/16 21:15:54;;;;;;;32.00;15.70;;;;;;;3.23;100.00;100874.76;271450;1284;22200;-92
2023/12/16 21:21:57;;;;;;;31.90;16.20;;;;;;;3.16;100.00;100866.20;270075;1280;22192;-91
2023/12/16 21:28:01;;;;;;;31.60;16.70;;;;;;;3.11;100.00;100862.92;269114;1283;22637;-93
2023/12/16 21:34:10;;;;;;;34.10;15.70;;;;;;;3.10;100.00;100854.39;268540;1280;22376;-92
2023/12/16 21:40:13;;;;;;;34.40;15.70;;;;;;;3.08;100.00;100847.58;269329;1282;22207;-91
2023/12/16 21:46:19;;;;;;;29.00;16.00;;;;;;;3.10;100.00;100850.86;269796;1285;22579;-92
2023/12/16 21:52:24;;;;;;;29.80;15.80;;;;;;;3.16;100.00;100863.70;269065;1282;23013;-93
2023/12/16 21:58:28;;;;;;;31.20;16.70;;;;;;;3.14;100.00;100857.17;270000;1280;22262;-93
2023/12/16 22:04:30;;;;;;;33.10;16.30;;;;;;;3.10;100.00;100840.42;269703;1280;22591;-92
2023/12/16 22:10:33;;;;;;;34.90;16.30;;;;;;;3.08;100.00;100833.73;270411;1280;22573;-92
2023/12/16 22:16:37;;;;;;;26.80;14.00;;;;;;;3.09;100.00;100837.84;270343;1280;22589;-92
2023/12/16 22:22:39;;;;;;;31.60;13.30;;;;;;;3.11;100.00;100847.61;270810;1280;22953;-92
2023/12/16 22:28:42;;;;;;;31.70;14.40;;;;;;;3.12;100.00;100842.90;270668;1280;22267;-91
2023/12/16 22:34:44;;;;;;;25.20;13.20;;;;;;;3.11;100.00;100825.27;271568;1280;23405;-91
2023/12/16 22:40:46;;;;;;;26.60;13.40;;;;;;;3.10;100.00;100807.19;271354;1280;25750;-93
2023/12/16 22:46:51;;;;;;;22.10;12.30;;;;;;;3.11;100.00;100810.33;269275;1283;22581;-91
2023/12/16 22:52:53;;;;;;;23.90;12.30;;;;;;;3.10;100.00;100818.77;270268;1280;22544;-91
2023/12/16 22:58:56;;;;;;;25.90;12.60;;;;;;;3.10;100.00;100813.42;269299;1280;23423;-92
2023/12/16 23:04:58;;;;;;;26.60;12.00;;;;;;;3.07;100.00;100817.33;271779;1279;22381;-92
2023/12/16 23:11:01;;;;;;;30.00;13.00;;;;;;;3.04;100.00;100836.73;270977;1279;22399;-93
2023/12/16 23:17:07;;;;;;;;;;;;;;;2.98;100.00;100854.95;269597;1279;23715;-92
2023/12/16 23:23:11;;;;;;;24.10;12.80;;;;;;;2.93;100.00;100857.84;271045;1280;22208;-93
2023/12/16 23:29:13;;;;;;;25.90;13.20;;;;;;;2.90;100.00;100848.66;271198;1280;22601;-91
2023/12/16 23:35:15;;;;;;;29.10;13.10;;;;;;;2.84;100.00;100833.77;271542;1280;22243;-93
2023/12/16 23:41:19;;;;;;;28.20;14.00;;;;;;;2.77;100.00;100818.55;269584;1280;22681;-92
2023/12/16 23:47:21;;;;;;;29.00;14.00;;;;;;;2.73;100.00;100825.77;270733;1280;22690;-92
2023/12/16 23:53:24;;;;;;;27.30;13.50;;;;;;;2.70;100.00;100826.27;268753;1280;23797;-92
2023/12/16 23:59:29;;;;;;;30.40;13.60;;;;;;;2.65;100.00;100827.93;268377;1280;22247;-93
